KRP505 LROP-LBSF
Flight info
| Callsign | KRP505 |
|---|---|
| Flight time | 0h 35m |
| Altitude | 30000 |
| Route | POLUN DCT TIMUR/N0420F290 N181 GOL |
| Aircraft | A320/M-SDE3FGHIRWY/LB1 |
Departure
| Time | 2026-05-06 13:32 |
|---|---|
| Airport | Bucharest Henri Coandă International Airport (LROP) |
Arrival
| Time | 2026-05-06 14:07 |
|---|---|
| Airport | Sofia Airport (LBSF) |
| Time | Latitude | Longitude | Altitude | Speed | Heading |
|---|---|---|---|---|---|
| 2026-05-06 13:28 | 44.56881 | 26.08118 | 320 ft | 0 kts | 173° |
| 2026-05-06 13:29 | 44.56861 | 26.08122 | 320 ft | 20 kts | 173° |
| 2026-05-06 13:30 | 44.56758 | 26.08006 | 319 ft | 19 kts | 252° |
| 2026-05-06 13:30 | 44.56724 | 26.07841 | 320 ft | 17 kts | 255° |
| 2026-05-06 13:30 | 44.56690 | 26.07695 | 320 ft | 15 kts | 235° |
| 2026-05-06 13:30 | 44.56601 | 26.07672 | 319 ft | 13 kts | 173° |
| 2026-05-06 13:31 | 44.56509 | 26.07689 | 318 ft | 14 kts | 171° |
| 2026-05-06 13:31 | 44.56476 | 26.07773 | 319 ft | 0 kts | 83° |
| 2026-05-06 13:31 | 44.56476 | 26.07776 | 320 ft | 3 kts | 83° |
| 2026-05-06 13:31 | 44.56503 | 26.08142 | 321 ft | 82 kts | 84° |
| 2026-05-06 13:32 | 44.56592 | 26.09327 | 318 ft | 158 kts | 84° |
| 2026-05-06 13:32 | 44.56661 | 26.10953 | 1057 ft | 162 kts | 91° |
| 2026-05-06 13:32 | 44.56720 | 26.12563 | 1933 ft | 173 kts | 86° |
| 2026-05-06 13:32 | 44.56865 | 26.14330 | 2473 ft | 192 kts | 85° |
| 2026-05-06 13:33 | 44.57039 | 26.16298 | 2829 ft | 214 kts | 86° |
| 2026-05-06 13:33 | 44.57224 | 26.18456 | 3242 ft | 234 kts | 86° |
| 2026-05-06 13:33 | 44.57413 | 26.20777 | 3961 ft | 243 kts | 85° |
| 2026-05-06 13:33 | 44.57604 | 26.23158 | 4731 ft | 249 kts | 83° |
| 2026-05-06 13:34 | 44.57795 | 26.25569 | 5507 ft | 253 kts | 83° |
| 2026-05-06 13:34 | 44.57979 | 26.28034 | 6346 ft | 255 kts | 86° |
| 2026-05-06 13:34 | 44.57708 | 26.30507 | 7132 ft | 261 kts | 111° |
| 2026-05-06 13:34 | 44.56662 | 26.32610 | 7925 ft | 268 kts | 137° |
| 2026-05-06 13:35 | 44.55026 | 26.33880 | 8698 ft | 273 kts | 165° |
| 2026-05-06 13:35 | 44.53152 | 26.34244 | 9463 ft | 276 kts | 174° |
| 2026-05-06 13:35 | 44.51515 | 26.34466 | 10108 ft | 279 kts | 174° |
| 2026-05-06 13:35 | 44.49572 | 26.34732 | 10787 ft | 282 kts | 174° |
| 2026-05-06 13:36 | 44.47603 | 26.35007 | 11471 ft | 285 kts | 174° |
| 2026-05-06 13:36 | 44.45611 | 26.35286 | 12166 ft | 288 kts | 174° |
| 2026-05-06 13:36 | 44.43754 | 26.35548 | 12802 ft | 291 kts | 174° |
| 2026-05-06 13:36 | 44.41723 | 26.35632 | 13482 ft | 293 kts | 186° |
| 2026-05-06 13:37 | 44.39717 | 26.35018 | 14037 ft | 301 kts | 201° |
| 2026-05-06 13:37 | 44.37809 | 26.33615 | 14224 ft | 322 kts | 218° |
| 2026-05-06 13:37 | 44.36163 | 26.31367 | 14386 ft | 341 kts | 235° |
| 2026-05-06 13:37 | 44.34994 | 26.28386 | 14519 ft | 360 kts | 252° |
| 2026-05-06 13:38 | 44.34282 | 26.24963 | 14888 ft | 372 kts | 256° |
| 2026-05-06 13:38 | 44.33572 | 26.21453 | 15474 ft | 377 kts | 256° |
| 2026-05-06 13:38 | 44.32846 | 26.17910 | 16094 ft | 381 kts | 255° |
| 2026-05-06 13:38 | 44.32106 | 26.14339 | 16717 ft | 385 kts | 255° |
| 2026-05-06 13:39 | 44.31352 | 26.10720 | 17352 ft | 389 kts | 255° |
| 2026-05-06 13:39 | 44.30592 | 26.07082 | 17972 ft | 393 kts | 255° |
| 2026-05-06 13:39 | 44.29825 | 26.03409 | 18541 ft | 396 kts | 255° |
| 2026-05-06 13:39 | 44.29061 | 25.99747 | 19096 ft | 399 kts | 255° |
| 2026-05-06 13:40 | 44.28280 | 25.96014 | 19657 ft | 402 kts | 255° |
| 2026-05-06 13:40 | 44.27491 | 25.92254 | 20222 ft | 404 kts | 255° |
| 2026-05-06 13:40 | 44.26697 | 25.88476 | 20794 ft | 407 kts | 255° |
| 2026-05-06 13:40 | 44.26166 | 25.85954 | 21156 ft | 409 kts | 256° |
| 2026-05-06 13:41 | 44.25362 | 25.82128 | 21699 ft | 411 kts | 256° |
| 2026-05-06 13:41 | 44.24590 | 25.78285 | 22217 ft | 413 kts | 259° |
| 2026-05-06 13:41 | 44.24182 | 25.74316 | 22730 ft | 412 kts | 269° |
| 2026-05-06 13:41 | 44.24142 | 25.70309 | 23249 ft | 414 kts | 272° |
| 2026-05-06 13:42 | 44.24124 | 25.66285 | 23721 ft | 416 kts | 272° |
| 2026-05-06 13:42 | 44.24100 | 25.62290 | 24131 ft | 417 kts | 272° |
| 2026-05-06 13:42 | 44.24072 | 25.58235 | 24535 ft | 419 kts | 272° |
| 2026-05-06 13:42 | 44.24041 | 25.54153 | 24930 ft | 421 kts | 272° |
| 2026-05-06 13:43 | 44.24007 | 25.50048 | 25302 ft | 422 kts | 272° |
| 2026-05-06 13:43 | 44.23971 | 25.45944 | 25688 ft | 424 kts | 272° |
| 2026-05-06 13:43 | 44.23936 | 25.41826 | 26064 ft | 426 kts | 272° |
| 2026-05-06 13:43 | 44.23898 | 25.37681 | 26432 ft | 427 kts | 272° |
| 2026-05-06 13:44 | 44.23859 | 25.33529 | 26794 ft | 429 kts | 272° |
| 2026-05-06 13:44 | 44.23797 | 25.29415 | 27141 ft | 432 kts | 269° |
| 2026-05-06 13:44 | 44.23355 | 25.25244 | 27472 ft | 438 kts | 259° |
| 2026-05-06 13:44 | 44.22395 | 25.21184 | 27795 ft | 444 kts | 250° |
| 2026-05-06 13:45 | 44.20936 | 25.17351 | 28106 ft | 451 kts | 240° |
| 2026-05-06 13:45 | 44.17128 | 25.10290 | 28690 ft | 457 kts | 236° |
| 2026-05-06 13:45 | 44.15187 | 25.06771 | 28970 ft | 459 kts | 236° |
| 2026-05-06 13:46 | 44.13237 | 25.03237 | 29231 ft | 461 kts | 237° |
| 2026-05-06 13:46 | 44.11283 | 24.99697 | 29490 ft | 463 kts | 237° |
| 2026-05-06 13:46 | 44.09343 | 24.96184 | 29750 ft | 464 kts | 237° |
| 2026-05-06 13:46 | 44.07379 | 24.92625 | 29960 ft | 463 kts | 237° |
| 2026-05-06 13:47 | 44.03506 | 24.85626 | 29996 ft | 452 kts | 237° |
| 2026-05-06 13:47 | 43.99659 | 24.78703 | 29992 ft | 451 kts | 237° |
| 2026-05-06 13:48 | 43.95819 | 24.71819 | 29995 ft | 450 kts | 237° |
| 2026-05-06 13:48 | 43.92005 | 24.64995 | 29989 ft | 449 kts | 237° |
| 2026-05-06 13:49 | 43.88171 | 24.58136 | 29985 ft | 448 kts | 237° |
| 2026-05-06 13:49 | 43.84345 | 24.51312 | 29982 ft | 447 kts | 237° |
| 2026-05-06 13:50 | 43.80519 | 24.44504 | 29980 ft | 447 kts | 237° |
| 2026-05-06 13:50 | 43.76714 | 24.37756 | 29974 ft | 446 kts | 236° |
| 2026-05-06 13:51 | 43.72850 | 24.31041 | 29971 ft | 447 kts | 231° |
| 2026-05-06 13:51 | 43.70529 | 24.28134 | 29966 ft | 453 kts | 220° |
| 2026-05-06 13:51 | 43.67812 | 24.25874 | 29966 ft | 459 kts | 209° |
| 2026-05-06 13:52 | 43.64787 | 24.24357 | 29969 ft | 465 kts | 197° |
| 2026-05-06 13:52 | 43.61613 | 24.23646 | 29575 ft | 472 kts | 186° |
| 2026-05-06 13:52 | 43.58318 | 24.23525 | 28770 ft | 473 kts | 184° |
| 2026-05-06 13:52 | 43.55014 | 24.23442 | 27688 ft | 476 kts | 183° |
| 2026-05-06 13:53 | 43.51701 | 24.23364 | 26663 ft | 477 kts | 183° |
| 2026-05-06 13:53 | 43.48359 | 24.23280 | 25660 ft | 478 kts | 183° |
| 2026-05-06 13:53 | 43.45033 | 24.23184 | 24698 ft | 477 kts | 183° |
| 2026-05-06 13:53 | 43.41714 | 24.23079 | 23760 ft | 476 kts | 182° |
| 2026-05-06 13:54 | 43.38447 | 24.22972 | 22721 ft | 474 kts | 182° |
| 2026-05-06 13:54 | 43.35152 | 24.22861 | 21664 ft | 473 kts | 182° |
| 2026-05-06 13:54 | 43.31865 | 24.22750 | 20645 ft | 471 kts | 182° |
| 2026-05-06 13:54 | 43.28594 | 24.22642 | 19647 ft | 469 kts | 182° |
| 2026-05-06 13:55 | 43.25345 | 24.22538 | 18865 ft | 464 kts | 182° |
| 2026-05-06 13:55 | 43.22138 | 24.22443 | 18120 ft | 457 kts | 182° |
| 2026-05-06 13:55 | 43.18967 | 24.22352 | 17301 ft | 451 kts | 182° |
| 2026-05-06 13:55 | 43.15837 | 24.22243 | 16530 ft | 445 kts | 185° |
| 2026-05-06 13:56 | 43.12810 | 24.21574 | 15813 ft | 437 kts | 196° |
| 2026-05-06 13:56 | 43.10028 | 24.20120 | 15138 ft | 429 kts | 208° |
| 2026-05-06 13:56 | 43.07536 | 24.17941 | 14457 ft | 423 kts | 219° |
| 2026-05-06 13:56 | 43.05441 | 24.15158 | 13788 ft | 416 kts | 231° |
| 2026-05-06 13:57 | 43.03644 | 24.12092 | 13180 ft | 409 kts | 232° |
| 2026-05-06 13:57 | 43.01903 | 24.09115 | 12984 ft | 392 kts | 232° |
| 2026-05-06 13:57 | 43.00236 | 24.06279 | 13008 ft | 371 kts | 232° |
| 2026-05-06 13:57 | 42.98653 | 24.03597 | 13008 ft | 357 kts | 231° |
| 2026-05-06 13:58 | 42.97120 | 24.01004 | 13010 ft | 354 kts | 231° |
| 2026-05-06 13:58 | 42.95535 | 23.98438 | 13009 ft | 353 kts | 225° |
| 2026-05-06 13:58 | 42.93539 | 23.96483 | 12825 ft | 354 kts | 206° |
| 2026-05-06 13:58 | 42.91191 | 23.95561 | 12537 ft | 353 kts | 187° |
| 2026-05-06 13:59 | 42.88734 | 23.95706 | 12260 ft | 353 kts | 174° |
| 2026-05-06 13:59 | 42.86298 | 23.96147 | 11977 ft | 352 kts | 173° |
| 2026-05-06 13:59 | 42.83902 | 23.96587 | 11702 ft | 350 kts | 173° |
| 2026-05-06 13:59 | 42.81491 | 23.97030 | 11421 ft | 347 kts | 173° |
| 2026-05-06 14:00 | 42.79127 | 23.97461 | 11146 ft | 337 kts | 174° |
| 2026-05-06 14:00 | 42.76829 | 23.97878 | 10878 ft | 327 kts | 173° |
| 2026-05-06 14:00 | 42.74591 | 23.98222 | 10608 ft | 319 kts | 179° |
| 2026-05-06 14:00 | 42.72398 | 23.98066 | 10338 ft | 312 kts | 186° |
| 2026-05-06 14:01 | 42.70256 | 23.97802 | 10054 ft | 307 kts | 188° |
| 2026-05-06 14:01 | 42.68246 | 23.96879 | 9444 ft | 309 kts | 215° |
| 2026-05-06 14:01 | 42.66836 | 23.94704 | 8804 ft | 311 kts | 244° |
| 2026-05-06 14:01 | 42.66373 | 23.91817 | 8000 ft | 321 kts | 269° |
| 2026-05-06 14:02 | 42.66457 | 23.88748 | 7208 ft | 329 kts | 274° |
| 2026-05-06 14:02 | 42.66686 | 23.85657 | 6448 ft | 336 kts | 276° |
| 2026-05-06 14:02 | 42.66970 | 23.82527 | 6099 ft | 327 kts | 276° |
| 2026-05-06 14:02 | 42.67264 | 23.79530 | 5979 ft | 311 kts | 277° |
| 2026-05-06 14:03 | 42.67492 | 23.76706 | 5996 ft | 292 kts | 274° |
| 2026-05-06 14:03 | 42.67655 | 23.74021 | 5923 ft | 279 kts | 274° |
| 2026-05-06 14:03 | 42.67813 | 23.71412 | 5617 ft | 276 kts | 274° |
| 2026-05-06 14:03 | 42.67975 | 23.68833 | 5273 ft | 273 kts | 274° |
| 2026-05-06 14:04 | 42.68135 | 23.66293 | 4928 ft | 263 kts | 274° |
| 2026-05-06 14:04 | 42.68285 | 23.63899 | 4592 ft | 245 kts | 274° |
| 2026-05-06 14:04 | 42.68423 | 23.61686 | 4287 ft | 231 kts | 274° |
| 2026-05-06 14:04 | 42.68556 | 23.59528 | 3989 ft | 228 kts | 274° |
| 2026-05-06 14:05 | 42.68686 | 23.57434 | 3699 ft | 216 kts | 274° |
| 2026-05-06 14:05 | 42.68809 | 23.55445 | 3448 ft | 206 kts | 274° |
| 2026-05-06 14:05 | 42.68924 | 23.53565 | 3180 ft | 194 kts | 275° |
| 2026-05-06 14:05 | 42.69033 | 23.51788 | 2914 ft | 183 kts | 276° |
| 2026-05-06 14:06 | 42.69135 | 23.50113 | 2679 ft | 173 kts | 276° |
| 2026-05-06 14:06 | 42.69232 | 23.48524 | 2443 ft | 164 kts | 276° |
| 2026-05-06 14:06 | 42.69323 | 23.47028 | 2222 ft | 155 kts | 276° |
| 2026-05-06 14:06 | 42.69410 | 23.45596 | 2061 ft | 149 kts | 277° |
| 2026-05-06 14:07 | 42.69495 | 23.44198 | 1842 ft | 147 kts | 277° |
| 2026-05-06 14:07 | 42.69579 | 23.42856 | 1751 ft | 125 kts | 275° |
| 2026-05-06 14:07 | 42.69637 | 23.42067 | 1746 ft | 40 kts | 276° |
| 2026-05-06 14:07 | 42.69633 | 23.41779 | 1744 ft | 30 kts | 259° |
| 2026-05-06 14:08 | 42.69567 | 23.41515 | 1750 ft | 31 kts | 244° |
| 2026-05-06 14:08 | 42.69483 | 23.41258 | 1742 ft | 22 kts | 249° |
| 2026-05-06 14:08 | 42.69391 | 23.41195 | 1750 ft | 14 kts | 191° |
| 2026-05-06 14:08 | 42.69299 | 23.41169 | 1747 ft | 13 kts | 193° |
| 2026-05-06 14:09 | 42.69218 | 23.41145 | 1750 ft | 11 kts | 191° |
| 2026-05-06 14:09 | 42.69149 | 23.41120 | 1750 ft | 10 kts | 195° |
| 2026-05-06 14:09 | 42.69090 | 23.41130 | 1743 ft | 8 kts | 162° |
| 2026-05-06 14:09 | 42.69060 | 23.41144 | 1743 ft | 0 kts | 161° |
| 2026-05-06 14:10 | 42.69058 | 23.41145 | 1744 ft | 0 kts | 160° |